sensor_id;sensor_type;location;lat;lon;timestamp;temperature;humidity
35425;DHT22;21537;48.226;16.400;2022-09-02T00:03:44;15.50;99.90
35425;DHT22;21537;48.226;16.400;2022-09-02T00:06:11;15.50;99.90
35425;DHT22;21537;48.226;16.400;2022-09-02T00:08:38;15.50;99.90
35425;DHT22;21537;48.226;16.400;2022-09-02T00:11:05;15.50;99.90
35425;DHT22;21537;48.226;16.400;2022-09-02T00:13:33;15.50;99.90
35425;DHT22;21537;48.226;16.400;2022-09-02T00:16:00;15.50;99.90
35425;DHT22;21537;48.226;16.400;2022-09-02T00:18:26;15.40;99.90
35425;DHT22;21537;48.226;16.400;2022-09-02T00:20:52;15.40;99.90
35425;DHT22;21537;48.226;16.400;2022-09-02T00:23:19;15.40;99.90
35425;DHT22;21537;48.226;16.400;2022-09-02T00:25:45;15.40;99.90
35425;DHT22;21537;48.226;16.400;2022-09-02T00:28:13;15.40;99.90
35425;DHT22;21537;48.226;16.400;2022-09-02T00:30:40;15.30;99.90
35425;DHT22;21537;48.226;16.400;2022-09-02T00:33:06;15.30;99.90
35425;DHT22;21537;48.226;16.400;2022-09-02T00:35:32;15.30;99.90
35425;DHT22;21537;48.226;16.400;2022-09-02T00:37:59;15.30;99.90
35425;DHT22;21537;48.226;16.400;2022-09-02T00:40:26;15.30;99.90
35425;DHT22;21537;48.226;16.400;2022-09-02T00:42:52;15.20;99.90
35425;DHT22;21537;48.226;16.400;2022-09-02T00:45:19;15.20;99.90
35425;DHT22;21537;48.226;16.400;2022-09-02T00:47:46;15.20;99.90
35425;DHT22;21537;48.226;16.400;2022-09-02T00:50:18;15.20;99.90
35425;DHT22;21537;48.226;16.400;2022-09-02T00:52:48;15.20;99.90
35425;DHT22;21537;48.226;16.400;2022-09-02T00:55:23;15.20;99.90
35425;DHT22;21537;48.226;16.400;2022-09-02T00:58:00;15.20;99.90
35425;DHT22;21537;48.226;16.400;2022-09-02T01:00:33;15.20;99.90
35425;DHT22;21537;48.226;16.400;2022-09-02T01:03:03;15.10;99.90
35425;DHT22;21537;48.226;16.400;2022-09-02T01:05:38;15.10;99.90
35425;DHT22;21537;48.226;16.400;2022-09-02T01:08:05;15.10;99.90
35425;DHT22;21537;48.226;16.400;2022-09-02T01:10:34;15.10;99.90
35425;DHT22;21537;48.226;16.400;2022-09-02T01:13:09;15.00;99.90
35425;DHT22;21537;48.226;16.400;2022-09-02T01:15:39;15.10;99.90
35425;DHT22;21537;48.226;16.400;2022-09-02T01:18:07;15.00;99.90
35425;DHT22;21537;48.226;16.400;2022-09-02T01:20:34;15.00;99.90
35425;DHT22;21537;48.226;16.400;2022-09-02T01:23:00;15.00;99.90
35425;DHT22;21537;48.226;16.400;2022-09-02T01:25:30;15.00;99.90
35425;DHT22;21537;48.226;16.400;2022-09-02T01:28:01;14.90;99.90
35425;DHT22;21537;48.226;16.400;2022-09-02T01:30:28;14.90;99.90
35425;DHT22;21537;48.226;16.400;2022-09-02T01:32:54;14.90;99.90
35425;DHT22;21537;48.226;16.400;2022-09-02T01:35:21;14.90;99.90
35425;DHT22;21537;48.226;16.400;2022-09-02T01:37:47;14.90;99.90
35425;DHT22;21537;48.226;16.400;2022-09-02T01:40:16;14.80;99.90
35425;DHT22;21537;48.226;16.400;2022-09-02T01:42:44;14.80;99.90
35425;DHT22;21537;48.226;16.400;2022-09-02T01:45:10;14.80;99.90
35425;DHT22;21537;48.226;16.400;2022-09-02T01:47:36;14.80;99.90
35425;DHT22;21537;48.226;16.400;2022-09-02T01:50:05;14.80;99.90
35425;DHT22;21537;48.226;16.400;2022-09-02T01:52:32;14.80;99.90
35425;DHT22;21537;48.226;16.400;2022-09-02T01:54:59;14.80;99.90
35425;DHT22;21537;48.226;16.400;2022-09-02T01:57:25;14.70;99.90
35425;DHT22;21537;48.226;16.400;2022-09-02T01:59:53;14.70;99.90
35425;DHT22;21537;48.226;16.400;2022-09-02T02:02:19;14.70;99.90
35425;DHT22;21537;48.226;16.400;2022-09-02T02:04:49;14.70;99.90
35425;DHT22;21537;48.226;16.400;2022-09-02T02:07:17;14.70;99.90
35425;DHT22;21537;48.226;16.400;2022-09-02T02:09:43;14.70;99.90
35425;DHT22;21537;48.226;16.400;2022-09-02T02:12:14;14.70;99.90
35425;DHT22;21537;48.226;16.400;2022-09-02T02:14:40;14.60;99.90
35425;DHT22;21537;48.226;16.400;2022-09-02T02:17:06;14.60;99.90
35425;DHT22;21537;48.226;16.400;2022-09-02T02:19:34;14.60;99.90
35425;DHT22;21537;48.226;16.400;2022-09-02T02:22:00;14.60;99.90
35425;DHT22;21537;48.226;16.400;2022-09-02T02:24:27;14.60;99.90
35425;DHT22;21537;48.226;16.400;2022-09-02T02:26:53;14.60;99.90
35425;DHT22;21537;48.226;16.400;2022-09-02T02:29:20;14.60;99.90
35425;DHT22;21537;48.226;16.400;2022-09-02T02:31:47;14.60;99.90
35425;DHT22;21537;48.226;16.400;2022-09-02T02:34:12;14.50;99.90
35425;DHT22;21537;48.226;16.400;2022-09-02T02:36:40;14.50;99.90
35425;DHT22;21537;48.226;16.400;2022-09-02T02:39:07;14.50;99.90
35425;DHT22;21537;48.226;16.400;2022-09-02T02:41:35;14.50;99.90
35425;DHT22;21537;48.226;16.400;2022-09-02T02:44:02;14.40;99.90
35425;DHT22;21537;48.226;16.400;2022-09-02T02:46:28;14.40;99.90
35425;DHT22;21537;48.226;16.400;2022-09-02T02:49:00;14.40;99.90
35425;DHT22;21537;48.226;16.400;2022-09-02T02:51:26;14.40;99.90
35425;DHT22;21537;48.226;16.400;2022-09-02T02:53:52;14.30;99.90
35425;DHT22;21537;48.226;16.400;2022-09-02T02:56:19;14.30;99.90
35425;DHT22;21537;48.226;16.400;2022-09-02T02:58:45;14.40;99.90
35425;DHT22;21537;48.226;16.400;2022-09-02T03:01:11;14.30;99.90
35425;DHT22;21537;48.226;16.400;2022-09-02T03:03:36;14.30;99.90
35425;DHT22;21537;48.226;16.400;2022-09-02T03:06:03;14.30;99.90
35425;DHT22;21537;48.226;16.400;2022-09-02T03:08:29;14.30;99.90
35425;DHT22;21537;48.226;16.400;2022-09-02T03:10:55;14.30;99.90
35425;DHT22;21537;48.226;16.400;2022-09-02T03:13:26;14.30;99.90
35425;DHT22;21537;48.226;16.400;2022-09-02T03:15:52;14.20;99.90
35425;DHT22;21537;48.226;16.400;2022-09-02T03:18:19;14.20;99.90
35425;DHT22;21537;48.226;16.400;2022-09-02T03:20:47;14.20;99.90
35425;DHT22;21537;48.226;16.400;2022-09-02T03:23:14;14.20;99.90
35425;DHT22;21537;48.226;16.400;2022-09-02T03:25:45;14.20;99.90
35425;DHT22;21537;48.226;16.400;2022-09-02T03:28:21;14.10;99.90
35425;DHT22;21537;48.226;16.400;2022-09-02T03:30:48;14.10;99.90
35425;DHT22;21537;48.226;16.400;2022-09-02T03:33:15;14.10;99.90
35425;DHT22;21537;48.226;16.400;2022-09-02T03:35:43;14.10;99.90
35425;DHT22;21537;48.226;16.400;2022-09-02T03:38:10;14.00;99.90
35425;DHT22;21537;48.226;16.400;2022-09-02T03:40:37;14.00;99.90
35425;DHT22;21537;48.226;16.400;2022-09-02T03:43:05;14.00;99.90
35425;DHT22;21537;48.226;16.400;2022-09-02T03:45:32;14.00;99.90
35425;DHT22;21537;48.226;16.400;2022-09-02T03:48:03;14.00;99.90
35425;DHT22;21537;48.226;16.400;2022-09-02T03:50:35;13.90;99.90
35425;DHT22;21537;48.226;16.400;2022-09-02T03:53:04;14.00;99.90
35425;DHT22;21537;48.226;16.400;2022-09-02T03:55:30;13.90;99.90
35425;DHT22;21537;48.226;16.400;2022-09-02T03:57:57;13.90;99.90
35425;DHT22;21537;48.226;16.400;2022-09-02T04:00:25;13.90;99.90
35425;DHT22;21537;48.226;16.400;2022-09-02T04:03:00;13.90;99.90
35425;DHT22;21537;48.226;16.400;2022-09-02T04:05:27;13.90;99.90
35425;DHT22;21537;48.226;16.400;2022-09-02T04:07:55;13.90;99.90
35425;DHT22;21537;48.226;16.400;2022-09-02T04:10:23;13.80;99.90
35425;DHT22;21537;48.226;16.400;2022-09-02T04:12:50;13.90;99.90
35425;DHT22;21537;48.226;16.400;2022-09-02T04:15:17;13.90;99.90
35425;DHT22;21537;48.226;16.400;2022-09-02T04:17:44;13.90;99.90
35425;DHT22;21537;48.226;16.400;2022-09-02T04:20:12;13.80;99.90
35425;DHT22;21537;48.226;16.400;2022-09-02T04:22:39;13.80;99.90
35425;DHT22;21537;48.226;16.400;2022-09-02T04:25:06;13.80;99.90
35425;DHT22;21537;48.226;16.400;2022-09-02T04:27:33;13.80;99.90
35425;DHT22;21537;48.226;16.400;2022-09-02T04:30:00;13.80;99.90
35425;DHT22;21537;48.226;16.400;2022-09-02T04:32:28;13.80;99.90
35425;DHT22;21537;48.226;16.400;2022-09-02T04:34:54;13.80;99.90
35425;DHT22;21537;48.226;16.400;2022-09-02T04:37:21;13.70;99.90
35425;DHT22;21537;48.226;16.400;2022-09-02T04:39:47;13.70;99.90
35425;DHT22;21537;48.226;16.400;2022-09-02T04:42:13;13.70;99.90
35425;DHT22;21537;48.226;16.400;2022-09-02T04:44:40;13.70;99.90
35425;DHT22;21537;48.226;16.400;2022-09-02T04:47:07;13.70;99.90
35425;DHT22;21537;48.226;16.400;2022-09-02T04:49:33;13.80;99.90
35425;DHT22;21537;48.226;16.400;2022-09-02T04:51:59;13.70;99.90
35425;DHT22;21537;48.226;16.400;2022-09-02T04:54:27;13.80;99.90
35425;DHT22;21537;48.226;16.400;2022-09-02T04:56:56;13.80;99.90
35425;DHT22;21537;48.226;16.400;2022-09-02T04:59:24;13.80;99.90
35425;DHT22;21537;48.226;16.400;2022-09-02T05:01:59;13.80;99.90
35425;DHT22;21537;48.226;16.400;2022-09-02T05:04:27;13.80;99.90
35425;DHT22;21537;48.226;16.400;2022-09-02T05:06:53;13.80;99.90
35425;DHT22;21537;48.226;16.400;2022-09-02T05:09:20;13.80;99.90
35425;DHT22;21537;48.226;16.400;2022-09-02T05:11:54;13.80;99.90
35425;DHT22;21537;48.226;16.400;2022-09-02T05:14:26;13.90;99.90
35425;DHT22;21537;48.226;16.400;2022-09-02T05:16:53;13.90;99.90
35425;DHT22;21537;48.226;16.400;2022-09-02T05:19:20;13.90;99.90
35425;DHT22;21537;48.226;16.400;2022-09-02T05:21:50;13.90;99.90
35425;DHT22;21537;48.226;16.400;2022-09-02T05:24:26;13.90;99.90
35425;DHT22;21537;48.226;16.400;2022-09-02T05:26:56;14.00;99.90
35425;DHT22;21537;48.226;16.400;2022-09-02T05:29:23;14.10;99.90
35425;DHT22;21537;48.226;16.400;2022-09-02T05:31:52;14.20;99.90
35425;DHT22;21537;48.226;16.400;2022-09-02T05:34:23;14.20;99.90
35425;DHT22;21537;48.226;16.400;2022-09-02T05:36:51;14.30;99.90
35425;DHT22;21537;48.226;16.400;2022-09-02T05:39:18;14.50;99.90
35425;DHT22;21537;48.226;16.400;2022-09-02T05:41:46;14.70;99.90
35425;DHT22;21537;48.226;16.400;2022-09-02T05:44:12;14.90;99.90
35425;DHT22;21537;48.226;16.400;2022-09-02T05:46:38;15.00;99.90
35425;DHT22;21537;48.226;16.400;2022-09-02T05:49:05;15.00;99.90
35425;DHT22;21537;48.226;16.400;2022-09-02T05:51:41;15.00;99.90
35425;DHT22;21537;48.226;16.400;2022-09-02T05:54:12;15.10;99.90
35425;DHT22;21537;48.226;16.400;2022-09-02T05:56:40;15.10;99.90
35425;DHT22;21537;48.226;16.400;2022-09-02T05:59:06;15.20;99.90
35425;DHT22;21537;48.226;16.400;2022-09-02T06:01:35;15.20;99.90
35425;DHT22;21537;48.226;16.400;2022-09-02T06:04:02;15.30;99.90
35425;DHT22;21537;48.226;16.400;2022-09-02T06:06:29;15.30;99.90
35425;DHT22;21537;48.226;16.400;2022-09-02T06:08:57;15.30;99.90
35425;DHT22;21537;48.226;16.400;2022-09-02T06:11:23;15.40;99.90
35425;DHT22;21537;48.226;16.400;2022-09-02T06:13:51;15.50;99.90
35425;DHT22;21537;48.226;16.400;2022-09-02T06:16:22;15.60;99.90
35425;DHT22;21537;48.226;16.400;2022-09-02T06:18:49;15.70;99.90
35425;DHT22;21537;48.226;16.400;2022-09-02T06:21:15;15.70;99.90
35425;DHT22;21537;48.226;16.400;2022-09-02T06:23:46;15.80;99.90
35425;DHT22;21537;48.226;16.400;2022-09-02T06:26:14;15.80;99.90
35425;DHT22;21537;48.226;16.400;2022-09-02T06:28:40;15.90;99.90
35425;DHT22;21537;48.226;16.400;2022-09-02T06:31:10;16.00;99.90
35425;DHT22;21537;48.226;16.400;2022-09-02T06:33:38;16.10;99.90
35425;DHT22;21537;48.226;16.400;2022-09-02T06:36:09;16.10;99.90
35425;DHT22;21537;48.226;16.400;2022-09-02T06:38:37;16.20;99.90
35425;DHT22;21537;48.226;16.400;2022-09-02T06:41:03;16.20;99.90
35425;DHT22;21537;48.226;16.400;2022-09-02T06:43:36;16.30;99.90
35425;DHT22;21537;48.226;16.400;2022-09-02T06:46:14;16.30;99.90
35425;DHT22;21537;48.226;16.400;2022-09-02T06:48:41;16.30;99.90
35425;DHT22;21537;48.226;16.400;2022-09-02T06:51:07;16.40;99.90
35425;DHT22;21537;48.226;16.400;2022-09-02T06:53:33;16.40;99.90
35425;DHT22;21537;48.226;16.400;2022-09-02T06:56:00;16.40;99.90
35425;DHT22;21537;48.226;16.400;2022-09-02T06:58:26;16.50;99.90
35425;DHT22;21537;48.226;16.400;2022-09-02T07:00:52;16.60;99.90
35425;DHT22;21537;48.226;16.400;2022-09-02T07:03:18;16.70;99.90
35425;DHT22;21537;48.226;16.400;2022-09-02T07:06:23;16.60;99.90
35425;DHT22;21537;48.226;16.400;2022-09-02T07:08:51;16.70;99.90
35425;DHT22;21537;48.226;16.400;2022-09-02T07:11:22;16.70;99.90
35425;DHT22;21537;48.226;16.400;2022-09-02T07:13:50;16.80;99.90
35425;DHT22;21537;48.226;16.400;2022-09-02T07:16:17;16.80;99.90
35425;DHT22;21537;48.226;16.400;2022-09-02T07:18:44;17.00;99.90
35425;DHT22;21537;48.226;16.400;2022-09-02T07:21:12;17.10;99.90
35425;DHT22;21537;48.226;16.400;2022-09-02T07:23:40;17.10;99.90
35425;DHT22;21537;48.226;16.400;2022-09-02T07:26:15;17.10;99.90
35425;DHT22;21537;48.226;16.400;2022-09-02T07:28:44;17.10;99.90
35425;DHT22;21537;48.226;16.400;2022-09-02T07:31:13;17.10;99.90
35425;DHT22;21537;48.226;16.400;2022-09-02T07:33:41;17.20;99.90
35425;DHT22;21537;48.226;16.400;2022-09-02T07:36:10;17.30;99.90
35425;DHT22;21537;48.226;16.400;2022-09-02T07:38:37;17.40;99.90
35425;DHT22;21537;48.226;16.400;2022-09-02T07:41:06;17.50;99.90
35425;DHT22;21537;48.226;16.400;2022-09-02T07:43:34;17.60;99.90
35425;DHT22;21537;48.226;16.400;2022-09-02T07:46:02;17.70;99.90
35425;DHT22;21537;48.226;16.400;2022-09-02T07:48:29;17.80;99.90
35425;DHT22;21537;48.226;16.400;2022-09-02T07:50:59;17.80;99.90
35425;DHT22;21537;48.226;16.400;2022-09-02T07:53:28;17.90;99.90
35425;DHT22;21537;48.226;16.400;2022-09-02T07:55:55;17.90;99.90
35425;DHT22;21537;48.226;16.400;2022-09-02T07:58:22;17.90;99.90
35425;DHT22;21537;48.226;16.400;2022-09-02T08:28:41;18.90;99.90
35425;DHT22;21537;48.226;16.400;2022-09-02T08:31:37;19.00;99.90
35425;DHT22;21537;48.226;16.400;2022-09-02T08:34:03;19.10;99.90
35425;DHT22;21537;48.226;16.400;2022-09-02T08:36:29;19.20;99.90
35425;DHT22;21537;48.226;16.400;2022-09-02T08:38:56;19.20;99.70
35425;DHT22;21537;48.226;16.400;2022-09-02T08:41:37;19.10;99.30
35425;DHT22;21537;48.226;16.400;2022-09-02T08:44:09;19.20;99.60
35425;DHT22;21537;48.226;16.400;2022-09-02T08:46:35;19.30;98.90
35425;DHT22;21537;48.226;16.400;2022-09-02T08:49:11;19.50;99.20
35425;DHT22;21537;48.226;16.400;2022-09-02T08:51:50;19.90;98.40
35425;DHT22;21537;48.226;16.400;2022-09-02T08:54:31;20.10;97.70
35425;DHT22;21537;48.226;16.400;2022-09-02T08:56:59;20.20;97.40
35425;DHT22;21537;48.226;16.400;2022-09-02T08:59:26;20.30;97.40
35425;DHT22;21537;48.226;16.400;2022-09-02T09:02:13;20.50;97.00
35425;DHT22;21537;48.226;16.400;2022-09-02T09:10:59;20.80;95.90
35425;DHT22;21537;48.226;16.400;2022-09-02T09:14:25;21.30;95.00
35425;DHT22;21537;48.226;16.400;2022-09-02T09:19:50;22.80;92.80
35425;DHT22;21537;48.226;16.400;2022-09-02T09:22:23;23.00;92.30
35425;DHT22;21537;48.226;16.400;2022-09-02T09:24:51;23.50;90.80
35425;DHT22;21537;48.226;16.400;2022-09-02T09:27:19;23.70;89.00
35425;DHT22;21537;48.226;16.400;2022-09-02T09:29:46;24.30;87.50
35425;DHT22;21537;48.226;16.400;2022-09-02T09:32:32;25.00;85.80
35425;DHT22;21537;48.226;16.400;2022-09-02T09:35:10;25.80;83.20
35425;DHT22;21537;48.226;16.400;2022-09-02T09:37:38;26.00;81.20
35425;DHT22;21537;48.226;16.400;2022-09-02T09:45:48;26.20;78.80
35425;DHT22;21537;48.226;16.400;2022-09-02T09:50:43;26.80;76.40
35425;DHT22;21537;48.226;16.400;2022-09-02T09:56:22;28.80;72.60
35425;DHT22;21537;48.226;16.400;2022-09-02T10:01:14;30.20;67.70
35425;DHT22;21537;48.226;16.400;2022-09-02T10:04:09;30.70;65.50
35425;DHT22;21537;48.226;16.400;2022-09-02T10:06:41;31.10;64.20
35425;DHT22;21537;48.226;16.400;2022-09-02T10:14:19;31.50;60.60
35425;DHT22;21537;48.226;16.400;2022-09-02T10:17:00;32.10;60.10
35425;DHT22;21537;48.226;16.400;2022-09-02T10:19:49;32.40;57.10
35425;DHT22;21537;48.226;16.400;2022-09-02T10:22:31;32.90;56.20
35425;DHT22;21537;48.226;16.400;2022-09-02T10:33:45;35.80;48.50
35425;DHT22;21537;48.226;16.400;2022-09-02T10:36:20;34.60;49.00
35425;DHT22;21537;48.226;16.400;2022-09-02T10:38:54;34.50;49.50
35425;DHT22;21537;48.226;16.400;2022-09-02T10:46:25;36.10;47.90
35425;DHT22;21537;48.226;16.400;2022-09-02T10:49:06;37.30;47.40
35425;DHT22;21537;48.226;16.400;2022-09-02T10:52:02;37.10;46.80
35425;DHT22;21537;48.226;16.400;2022-09-02T10:57:22;36.40;45.30
35425;DHT22;21537;48.226;16.400;2022-09-02T11:03:00;35.90;45.70
35425;DHT22;21537;48.226;16.400;2022-09-02T11:05:56;37.20;44.80
35425;DHT22;21537;48.226;16.400;2022-09-02T11:14:01;37.80;43.40
35425;DHT22;21537;48.226;16.400;2022-09-02T11:17:19;37.30;43.60
35425;DHT22;21537;48.226;16.400;2022-09-02T11:19:53;36.60;44.10
35425;DHT22;21537;48.226;16.400;2022-09-02T11:22:26;36.90;44.30
35425;DHT22;21537;48.226;16.400;2022-09-02T11:25:04;37.30;43.40
35425;DHT22;21537;48.226;16.400;2022-09-02T11:27:44;37.30;43.60
35425;DHT22;21537;48.226;16.400;2022-09-02T11:30:22;37.70;43.00
35425;DHT22;21537;48.226;16.400;2022-09-02T11:35:51;39.40;41.90
35425;DHT22;21537;48.226;16.400;2022-09-02T11:38:39;39.70;41.70
35425;DHT22;21537;48.226;16.400;2022-09-02T11:44:29;38.90;42.00
35425;DHT22;21537;48.226;16.400;2022-09-02T11:53:31;35.40;43.80
35425;DHT22;21537;48.226;16.400;2022-09-02T11:58:52;38.40;42.50
35425;DHT22;21537;48.226;16.400;2022-09-02T12:03:56;40.20;41.10
35425;DHT22;21537;48.226;16.400;2022-09-02T12:06:23;40.30;41.30
35425;DHT22;21537;48.226;16.400;2022-09-02T12:11:38;39.00;40.40
35425;DHT22;21537;48.226;16.400;2022-09-02T12:17:07;38.10;41.30
35425;DHT22;21537;48.226;16.400;2022-09-02T12:19:44;39.00;40.90
35425;DHT22;21537;48.226;16.400;2022-09-02T12:27:33;40.90;39.40
35425;DHT22;21537;48.226;16.400;2022-09-02T12:30:05;41.20;39.70
35425;DHT22;21537;48.226;16.400;2022-09-02T12:40:39;39.40;40.00
35425;DHT22;21537;48.226;16.400;2022-09-02T12:43:22;40.20;39.80
35425;DHT22;21537;48.226;16.400;2022-09-02T12:45:50;40.90;39.80
35425;DHT22;21537;48.226;16.400;2022-09-02T12:48:24;40.50;39.40
35425;DHT22;21537;48.226;16.400;2022-09-02T12:50:55;39.50;39.90
35425;DHT22;21537;48.226;16.400;2022-09-02T12:53:41;39.10;40.00
35425;DHT22;21537;48.226;16.400;2022-09-02T12:56:21;39.10;40.10
35425;DHT22;21537;48.226;16.400;2022-09-02T12:58:51;40.70;39.40
35425;DHT22;21537;48.226;16.400;2022-09-02T13:01:46;38.90;39.10
35425;DHT22;21537;48.226;16.400;2022-09-02T13:21:16;38.40;40.70
35425;DHT22;21537;48.226;16.400;2022-09-02T13:32:20;39.90;39.60
35425;DHT22;21537;48.226;16.400;2022-09-02T13:34:48;40.50;39.30
35425;DHT22;21537;48.226;16.400;2022-09-02T13:37:39;41.20;39.20
35425;DHT22;21537;48.226;16.400;2022-09-02T13:42:48;42.00;38.50
35425;DHT22;21537;48.226;16.400;2022-09-02T13:45:20;42.00;38.00
35425;DHT22;21537;48.226;16.400;2022-09-02T13:47:49;42.00;38.10
35425;DHT22;21537;48.226;16.400;2022-09-02T13:50:19;42.00;38.30
35425;DHT22;21537;48.226;16.400;2022-09-02T13:52:49;41.70;38.20
35425;DHT22;21537;48.226;16.400;2022-09-02T13:55:16;41.20;38.50
35425;DHT22;21537;48.226;16.400;2022-09-02T13:57:57;41.30;38.20
35425;DHT22;21537;48.226;16.400;2022-09-02T14:00:30;41.80;38.30
35425;DHT22;21537;48.226;16.400;2022-09-02T14:03:00;41.30;38.10
35425;DHT22;21537;48.226;16.400;2022-09-02T14:05:27;40.20;38.30
35425;DHT22;21537;48.226;16.400;2022-09-02T14:07:55;39.40;38.80
35425;DHT22;21537;48.226;16.400;2022-09-02T14:10:25;38.90;39.00
35425;DHT22;21537;48.226;16.400;2022-09-02T14:12:53;39.90;39.10
35425;DHT22;21537;48.226;16.400;2022-09-02T14:15:28;39.90;39.00
35425;DHT22;21537;48.226;16.400;2022-09-02T14:18:21;39.60;39.10
35425;DHT22;21537;48.226;16.400;2022-09-02T14:23:29;40.40;38.50
35425;DHT22;21537;48.226;16.400;2022-09-02T14:25:59;40.10;38.70
35425;DHT22;21537;48.226;16.400;2022-09-02T14:28:30;39.70;38.90
35425;DHT22;21537;48.226;16.400;2022-09-02T14:31:25;39.60;38.50
35425;DHT22;21537;48.226;16.400;2022-09-02T14:33:53;39.10;38.70
35425;DHT22;21537;48.226;16.400;2022-09-02T14:41:52;34.50;41.30
35425;DHT22;21537;48.226;16.400;2022-09-02T14:44:15;33.90;41.70
35425;DHT22;21537;48.226;16.400;2022-09-02T14:46:47;32.50;42.20
35425;DHT22;21537;48.226;16.400;2022-09-02T14:49:30;31.00;43.30
35425;DHT22;21537;48.226;16.400;2022-09-02T14:51:59;29.60;44.70
35425;DHT22;21537;48.226;16.400;2022-09-02T14:54:42;28.60;45.90
35425;DHT22;21537;48.226;16.400;2022-09-02T14:57:31;28.10;46.20
35425;DHT22;21537;48.226;16.400;2022-09-02T15:00:08;27.70;46.80
35425;DHT22;21537;48.226;16.400;2022-09-02T15:02:35;27.40;47.10
35425;DHT22;21537;48.226;16.400;2022-09-02T15:05:06;27.10;47.60
35425;DHT22;21537;48.226;16.400;2022-09-02T15:07:33;26.90;48.40
35425;DHT22;21537;48.226;16.400;2022-09-02T15:09:59;26.60;48.90
35425;DHT22;21537;48.226;16.400;2022-09-02T15:12:31;26.30;49.60
35425;DHT22;21537;48.226;16.400;2022-09-02T15:14:58;26.00;50.10
35425;DHT22;21537;48.226;16.400;2022-09-02T15:17:24;25.60;50.60
35425;DHT22;21537;48.226;16.400;2022-09-02T15:19:50;25.20;51.30
35425;DHT22;21537;48.226;16.400;2022-09-02T15:22:17;25.10;51.50
35425;DHT22;21537;48.226;16.400;2022-09-02T15:24:44;24.90;51.70
35425;DHT22;21537;48.226;16.400;2022-09-02T15:27:12;24.70;52.00
35425;DHT22;21537;48.226;16.400;2022-09-02T15:29:38;24.50;52.10
35425;DHT22;21537;48.226;16.400;2022-09-02T15:32:05;24.40;52.70
35425;DHT22;21537;48.226;16.400;2022-09-02T15:34:31;24.30;52.70
35425;DHT22;21537;48.226;16.400;2022-09-02T15:36:57;24.20;53.00
35425;DHT22;21537;48.226;16.400;2022-09-02T15:39:23;24.00;53.00
35425;DHT22;21537;48.226;16.400;2022-09-02T15:41:50;23.90;53.50
35425;DHT22;21537;48.226;16.400;2022-09-02T15:44:17;23.80;54.00
35425;DHT22;21537;48.226;16.400;2022-09-02T15:46:43;23.60;54.00
35425;DHT22;21537;48.226;16.400;2022-09-02T15:49:11;23.40;54.20
35425;DHT22;21537;48.226;16.400;2022-09-02T15:51:38;23.30;54.90
35425;DHT22;21537;48.226;16.400;2022-09-02T15:54:10;23.30;55.20
35425;DHT22;21537;48.226;16.400;2022-09-02T15:56:38;23.30;55.70
35425;DHT22;21537;48.226;16.400;2022-09-02T15:59:07;23.30;55.60
35425;DHT22;21537;48.226;16.400;2022-09-02T16:01:34;23.30;56.00
35425;DHT22;21537;48.226;16.400;2022-09-02T16:04:03;23.30;55.80
35425;DHT22;21537;48.226;16.400;2022-09-02T16:06:31;23.20;56.10
35425;DHT22;21537;48.226;16.400;2022-09-02T16:08:57;23.10;56.00
35425;DHT22;21537;48.226;16.400;2022-09-02T16:11:24;23.10;56.30
35425;DHT22;21537;48.226;16.400;2022-09-02T16:13:50;23.10;56.90
35425;DHT22;21537;48.226;16.400;2022-09-02T16:16:16;23.00;56.60
35425;DHT22;21537;48.226;16.400;2022-09-02T16:18:43;22.90;56.80
35425;DHT22;21537;48.226;16.400;2022-09-02T16:21:11;22.90;57.10
35425;DHT22;21537;48.226;16.400;2022-09-02T16:23:37;22.80;57.00
35425;DHT22;21537;48.226;16.400;2022-09-02T16:28:39;22.60;57.30
35425;DHT22;21537;48.226;16.400;2022-09-02T16:31:07;22.50;57.10
35425;DHT22;21537;48.226;16.400;2022-09-02T16:33:33;22.40;57.40
35425;DHT22;21537;48.226;16.400;2022-09-02T16:35:59;22.40;57.70
35425;DHT22;21537;48.226;16.400;2022-09-02T16:38:25;22.40;58.30
35425;DHT22;21537;48.226;16.400;2022-09-02T16:40:52;22.30;58.60
35425;DHT22;21537;48.226;16.400;2022-09-02T16:43:19;22.30;58.50
35425;DHT22;21537;48.226;16.400;2022-09-02T16:45:50;22.30;58.20
35425;DHT22;21537;48.226;16.400;2022-09-02T16:48:20;22.30;58.70
35425;DHT22;21537;48.226;16.400;2022-09-02T16:50:47;22.10;59.50
35425;DHT22;21537;48.226;16.400;2022-09-02T16:53:14;22.10;59.80
35425;DHT22;21537;48.226;16.400;2022-09-02T16:55:44;22.00;59.90
35425;DHT22;21537;48.226;16.400;2022-09-02T16:58:12;21.90;60.30
35425;DHT22;21537;48.226;16.400;2022-09-02T17:00:41;21.80;60.60
35425;DHT22;21537;48.226;16.400;2022-09-02T17:03:09;21.80;60.60
35425;DHT22;21537;48.226;16.400;2022-09-02T17:05:36;21.70;60.90
35425;DHT22;21537;48.226;16.400;2022-09-02T17:08:03;21.60;61.10
35425;DHT22;21537;48.226;16.400;2022-09-02T17:10:30;21.60;61.40
35425;DHT22;21537;48.226;16.400;2022-09-02T17:12:56;21.60;61.60
35425;DHT22;21537;48.226;16.400;2022-09-02T17:15:23;21.50;61.60
35425;DHT22;21537;48.226;16.400;2022-09-02T17:17:51;21.40;61.80
35425;DHT22;21537;48.226;16.400;2022-09-02T17:20:17;21.40;61.90
35425;DHT22;21537;48.226;16.400;2022-09-02T17:22:43;21.30;62.40
35425;DHT22;21537;48.226;16.400;2022-09-02T17:25:09;21.30;62.40
35425;DHT22;21537;48.226;16.400;2022-09-02T17:27:36;21.20;62.70
35425;DHT22;21537;48.226;16.400;2022-09-02T17:30:06;21.10;63.10
35425;DHT22;21537;48.226;16.400;2022-09-02T17:32:31;21.00;63.40
35425;DHT22;21537;48.226;16.400;2022-09-02T17:34:58;21.00;63.80
35425;DHT22;21537;48.226;16.400;2022-09-02T17:37:24;20.90;64.00
35425;DHT22;21537;48.226;16.400;2022-09-02T17:39:51;20.80;64.20
35425;DHT22;21537;48.226;16.400;2022-09-02T17:42:17;20.80;64.50
35425;DHT22;21537;48.226;16.400;2022-09-02T17:44:44;20.70;64.70
35425;DHT22;21537;48.226;16.400;2022-09-02T17:47:15;20.60;65.40
35425;DHT22;21537;48.226;16.400;2022-09-02T17:49:42;20.60;65.40
35425;DHT22;21537;48.226;16.400;2022-09-02T17:52:10;20.50;65.40
35425;DHT22;21537;48.226;16.400;2022-09-02T17:54:38;20.50;65.70
35425;DHT22;21537;48.226;16.400;2022-09-02T17:57:21;20.40;65.90
35425;DHT22;21537;48.226;16.400;2022-09-02T18:00:09;20.40;66.50
35425;DHT22;21537;48.226;16.400;2022-09-02T18:10:36;20.10;68.30
35425;DHT22;21537;48.226;16.400;2022-09-02T18:13:08;20.10;69.10
35425;DHT22;21537;48.226;16.400;2022-09-02T18:18:29;19.90;69.70
35425;DHT22;21537;48.226;16.400;2022-09-02T18:21:02;19.80;69.90
35425;DHT22;21537;48.226;16.400;2022-09-02T18:26:13;19.80;70.00